Time;durP1;ratioP1;P1;durP2;ratioP2;P2;SDS_P1;SDS_P2;PMS_P1;PMS_P2;Temp;Humidity;BMP_temperature;BMP_pressure;BME280_temperature;BME280_humidity;BME280_pressure;Samples;Min_cycle;Max_cycle;Signal;HPM_P1;HPM_P2
2022/02/18 00:01:04;;;;;;;4.72;1.50;;;9.50;92.10;;;;;;5094522;28;20183;-86
2022/02/18 00:03:31;;;;;;;5.68;1.50;;;9.50;92.10;;;;;;5094416;28;20283;-86
2022/02/18 00:05:57;;;;;;;4.47;1.73;;;9.50;92.10;;;;;;5094669;28;20179;-87
2022/02/18 00:08:24;;;;;;;5.28;1.60;;;9.50;92.10;;;;;;5095559;28;20188;-86
2022/02/18 00:10:50;;;;;;;4.60;1.55;;;9.40;92.20;;;;;;5093985;28;20177;-89
2022/02/18 00:13:16;;;;;;;4.07;2.05;;;9.40;92.10;;;;;;5094783;28;20224;-87
2022/02/18 00:15:42;;;;;;;5.18;1.30;;;9.40;92.10;;;;;;5077321;28;20232;-86
2022/02/18 00:18:07;;;;;;;3.70;1.33;;;9.40;92.20;;;;;;5095757;28;20207;-86
2022/02/18 00:20:35;;;;;;;4.13;1.70;;;9.40;92.20;;;;;;5077372;28;20187;-89
2022/02/18 00:23:02;;;;;;;3.00;1.35;;;9.30;92.20;;;;;;5077543;28;20204;-86
2022/02/18 00:25:28;;;;;;;2.90;1.60;;;9.30;92.20;;;;;;5077465;28;20180;-91
2022/02/18 00:27:55;;;;;;;3.13;1.33;;;9.30;92.30;;;;;;5076693;28;20220;-91
2022/02/18 00:30:21;;;;;;;4.43;1.33;;;9.30;92.30;;;;;;5094600;28;20169;-87
2022/02/18 00:32:47;;;;;;;2.40;1.27;;;9.30;92.30;;;;;;5076608;28;20449;-87
2022/02/18 00:35:19;;;;;;;4.43;1.47;;;9.30;92.30;;;;;;5076470;28;20556;-91
2022/02/18 00:37:54;;;;;;;4.10;1.70;;;9.20;92.40;;;;;;5095371;28;20452;-91
2022/02/18 00:40:21;;;;;;;3.85;1.98;;;9.20;92.40;;;;;;5094474;28;20179;-87
2022/02/18 00:42:49;;;;;;;3.67;1.55;;;9.20;92.50;;;;;;5094349;28;20232;-91
2022/02/18 00:45:15;;;;;;;5.53;1.80;;;9.20;92.60;;;;;;5083439;28;20634;-90
2022/02/18 00:47:41;;;;;;;5.65;1.40;;;9.10;92.60;;;;;;5098732;28;20208;-90
2022/02/18 00:50:07;;;;;;;2.90;1.20;;;9.10;92.70;;;;;;5076986;28;20183;-90
2022/02/18 00:52:33;;;;;;;5.68;1.70;;;9.10;92.70;;;;;;5095347;28;20197;-87
2022/02/18 00:54:59;;;;;;;3.97;1.70;;;9.00;92.70;;;;;;5099781;28;20208;-88
2022/02/18 00:57:25;;;;;;;2.60;1.20;;;9.00;92.80;;;;;;5077556;28;20276;-86
2022/02/18 00:59:52;;;;;;;5.22;1.65;;;9.00;92.90;;;;;;5076817;28;20175;-86
2022/02/18 01:02:18;;;;;;;5.45;1.77;;;9.00;93.00;;;;;;5076641;28;20204;-87
2022/02/18 01:04:44;;;;;;;5.83;2.83;;;9.00;93.10;;;;;;5076780;28;20173;-87
2022/02/18 01:07:09;;;;;;;3.07;1.53;;;9.00;93.40;;;;;;5095247;28;20525;-86
2022/02/18 01:09:35;;;;;;;1.83;1.33;;;9.00;93.50;;;;;;5076564;28;20211;-88
2022/02/18 01:12:01;;;;;;;5.30;1.70;;;9.00;93.60;;;;;;5095100;28;20633;-86
2022/02/18 01:14:27;;;;;;;8.77;2.03;;;9.00;93.80;;;;;;5091752;28;20232;-86
2022/02/18 01:16:52;;;;;;;3.43;2.00;;;9.00;94.00;;;;;;5094604;28;20216;-90
2022/02/18 01:19:18;;;;;;;4.07;1.70;;;9.00;94.10;;;;;;5094733;28;20171;-90
2022/02/18 01:21:45;;;;;;;5.38;2.22;;;9.00;94.50;;;;;;5093500;28;20187;-90
2022/02/18 01:24:10;;;;;;;3.38;1.45;;;9.00;94.30;;;;;;5094549;28;20199;-91
2022/02/18 01:26:37;;;;;;;4.40;1.90;;;9.00;94.30;;;;;;5093827;28;20185;-90
2022/02/18 01:29:04;;;;;;;3.33;1.40;;;9.00;94.30;;;;;;5093203;28;20193;-90
2022/02/18 01:31:29;;;;;;;5.03;1.83;;;9.00;94.30;;;;;;5093257;28;20181;-86
2022/02/18 01:33:57;;;;;;;5.23;2.00;;;9.00;94.30;;;;;;5094447;28;20238;-91
2022/02/18 01:36:24;;;;;;;10.40;2.35;;;9.00;94.30;;;;;;5093162;28;20716;-86
2022/02/18 01:38:50;;;;;;;3.70;1.98;;;9.00;94.30;;;;;;5095105;28;20641;-86
2022/02/18 01:41:15;;;;;;;6.60;2.20;;;9.00;94.40;;;;;;5096349;28;20238;-87
2022/02/18 01:43:53;;;;;;;11.50;3.30;;;9.00;94.40;;;;;;5099139;28;20193;-90
2022/02/18 01:46:19;;;;;;;6.85;2.13;;;8.90;94.60;;;;;;5099015;28;20187;-91
2022/02/18 01:48:44;;;;;;;4.15;1.90;;;8.90;94.70;;;;;;5096947;28;20665;-86
2022/02/18 01:51:11;;;;;;;4.17;1.50;;;8.80;94.80;;;;;;5098297;28;20279;-87
2022/02/18 01:53:37;;;;;;;5.80;1.98;;;8.80;94.80;;;;;;5098598;28;20200;-90
2022/02/18 01:56:03;;;;;;;5.30;1.90;;;8.80;94.90;;;;;;5097869;28;20583;-87
2022/02/18 01:58:30;;;;;;;2.57;1.63;;;8.80;95.00;;;;;;5102941;28;20197;-90
2022/02/18 02:00:57;;;;;;;4.57;2.13;;;8.80;95.10;;;;;;5108863;28;20751;-86
2022/02/18 02:03:24;;;;;;;2.13;1.35;;;8.70;95.20;;;;;;5103953;28;20230;-90
2022/02/18 02:05:51;;;;;;;3.30;1.40;;;8.70;95.30;;;;;;5096000;28;20181;-90
2022/02/18 02:08:17;;;;;;;4.55;1.80;;;8.60;95.30;;;;;;5097015;28;20204;-90
2022/02/18 02:10:44;;;;;;;2.97;1.47;;;8.60;95.40;;;;;;5095736;28;20607;-87
2022/02/18 02:13:11;;;;;;;3.13;1.40;;;8.60;95.50;;;;;;5095543;28;20447;-91
2022/02/18 02:15:36;;;;;;;1.88;1.38;;;8.60;95.60;;;;;;5095823;28;20555;-91
2022/02/18 02:18:02;;;;;;;4.50;1.47;;;8.60;95.60;;;;;;5097512;28;20238;-91
2022/02/18 02:20:29;;;;;;;5.70;2.10;;;8.60;95.70;;;;;;5097120;28;20165;-86
2022/02/18 02:22:54;;;;;;;3.67;1.77;;;8.60;95.80;;;;;;5096074;28;20265;-87
2022/02/18 02:25:20;;;;;;;3.33;1.70;;;8.60;95.80;;;;;;5096647;28;20243;-88
2022/02/18 02:27:46;;;;;;;3.60;1.60;;;8.60;95.90;;;;;;5097053;28;20223;-90
2022/02/18 02:30:12;;;;;;;4.70;1.70;;;8.60;95.90;;;;;;5097042;28;20180;-86
2022/02/18 02:32:38;;;;;;;3.22;1.50;;;8.60;95.90;;;;;;5095758;28;20204;-87
2022/02/18 02:35:05;;;;;;;6.07;1.50;;;8.60;96.00;;;;;;5096027;28;20222;-89
2022/02/18 02:37:31;;;;;;;6.03;1.90;;;8.60;96.00;;;;;;5097220;28;20452;-87
2022/02/18 02:39:56;;;;;;;2.60;1.50;;;8.60;96.10;;;;;;5096304;28;20516;-86
2022/02/18 02:42:22;;;;;;;4.37;1.60;;;8.60;96.40;;;;;;5095274;28;20246;-91
2022/02/18 02:44:49;;;;;;;5.97;1.70;;;8.60;96.20;;;;;;5095491;28;20545;-90
2022/02/18 02:47:15;;;;;;;2.25;1.83;;;8.60;96.20;;;;;;5095571;28;20473;-86
2022/02/18 02:49:41;;;;;;;4.83;2.10;;;8.60;96.20;;;;;;5095755;28;20181;-87
2022/02/18 02:52:06;;;;;;;3.00;1.67;;;8.60;96.30;;;;;;5100018;28;20203;-87
2022/02/18 02:54:32;;;;;;;5.37;1.53;;;8.50;96.40;;;;;;5101859;28;20413;-87
2022/02/18 02:56:58;;;;;;;5.35;2.03;;;8.50;96.40;;;;;;5103603;28;20567;-87
2022/02/18 02:59:24;;;;;;;2.80;1.38;;;8.50;96.50;;;;;;5096433;28;20168;-90
2022/02/18 03:01:51;;;;;;;5.78;1.70;;;8.50;96.60;;;;;;5095126;28;20184;-90
2022/02/18 03:04:17;;;;;;;2.90;1.60;;;8.50;96.70;;;;;;5095392;28;20279;-91
2022/02/18 03:06:43;;;;;;;5.13;1.23;;;8.40;96.80;;;;;;5096376;28;20581;-90
2022/02/18 03:09:10;;;;;;;2.70;1.20;;;8.40;96.90;;;;;;5096826;28;20173;-90
2022/02/18 03:11:37;;;;;;;3.85;1.48;;;8.40;97.00;;;;;;5096252;28;20169;-90
2022/02/18 03:14:04;;;;;;;2.30;1.50;;;8.40;97.10;;;;;;5095978;28;20720;-85
2022/02/18 03:16:30;;;;;;;4.28;2.00;;;8.40;97.10;;;;;;5095924;28;20216;-86
2022/02/18 03:18:55;;;;;;;4.30;1.83;;;8.40;97.20;;;;;;5096313;28;20720;-90
2022/02/18 03:21:22;;;;;;;3.20;1.90;;;8.30;97.30;;;;;;5078727;28;20408;-86
2022/02/18 03:23:47;;;;;;;4.72;1.95;;;8.30;97.40;;;;;;5096197;28;20188;-91
2022/02/18 03:26:15;;;;;;;4.70;1.93;;;8.20;97.50;;;;;;5078221;28;20532;-90
2022/02/18 03:28:41;;;;;;;3.22;1.90;;;8.20;97.60;;;;;;5077802;28;20541;-91
2022/02/18 03:31:10;;;;;;;4.00;1.80;;;8.20;97.70;;;;;;5077696;28;20192;-91
2022/02/18 03:33:41;;;;;;;2.85;1.80;;;8.10;97.80;;;;;;5077738;28;20203;-90
2022/02/18 03:36:07;;;;;;;8.02;2.70;;;8.10;97.90;;;;;;5078274;28;20204;-86
2022/02/18 03:38:34;;;;;;;6.00;2.08;;;8.10;98.00;;;;;;5077580;28;20242;-90
2022/02/18 03:41:00;;;;;;;5.68;2.05;;;8.00;98.10;;;;;;5077576;28;20183;-86
2022/02/18 03:43:26;;;;;;;2.30;1.55;;;8.00;98.20;;;;;;5096258;28;20220;-91
2022/02/18 03:45:52;;;;;;;4.17;1.70;;;8.00;98.40;;;;;;5077507;28;20179;-86
2022/02/18 03:48:18;;;;;;;4.35;1.48;;;8.00;98.50;;;;;;5096027;28;20231;-89
2022/02/18 03:50:44;;;;;;;6.67;1.77;;;7.90;98.60;;;;;;5095697;28;20528;-90
2022/02/18 03:53:10;;;;;;;2.90;1.80;;;7.90;98.80;;;;;;5078338;28;20201;-87
2022/02/18 03:55:36;;;;;;;5.97;1.97;;;7.80;98.80;;;;;;5077567;28;20269;-85
2022/02/18 03:58:02;;;;;;;3.47;1.75;;;7.80;98.90;;;;;;5078808;28;20200;-86
2022/02/18 04:00:28;;;;;;;3.58;1.90;;;7.80;99.10;;;;;;5080866;28;20180;-87
2022/02/18 04:02:54;;;;;;;3.30;1.97;;;7.80;99.20;;;;;;5084355;28;20269;-91
2022/02/18 04:05:20;;;;;;;5.47;1.80;;;7.80;99.30;;;;;;5081298;28;20455;-86
2022/02/18 04:07:46;;;;;;;5.10;1.77;;;7.80;99.40;;;;;;5095702;28;20413;-91
2022/02/18 04:10:11;;;;;;;2.93;1.60;;;7.80;99.40;;;;;;5097126;28;20181;-86
2022/02/18 04:12:37;;;;;;;2.90;1.30;;;7.80;99.50;;;;;;5077347;28;20462;-91
2022/02/18 04:15:04;;;;;;;4.07;1.60;;;7.80;99.60;;;;;;5095905;28;20200;-90
2022/02/18 04:17:30;;;;;;;3.55;1.33;;;7.90;99.60;;;;;;5078084;28;20669;-91
2022/02/18 04:19:56;;;;;;;3.83;1.40;;;7.90;99.60;;;;;;5096225;28;20172;-85
2022/02/18 04:22:22;;;;;;;4.70;1.50;;;7.90;99.60;;;;;;5095538;28;20196;-91
2022/02/18 04:24:48;;;;;;;4.00;1.52;;;7.90;99.60;;;;;;5095292;28;20176;-86
2022/02/18 04:27:14;;;;;;;2.70;1.30;;;8.00;99.60;;;;;;5077366;28;20342;-90
2022/02/18 04:29:40;;;;;;;4.97;2.40;;;8.00;99.50;;;;;;5077083;28;20172;-90
2022/02/18 04:32:06;;;;;;;3.03;1.17;;;8.00;99.50;;;;;;5077576;28;20447;-86
2022/02/18 04:34:32;;;;;;;3.67;1.40;;;8.10;99.50;;;;;;5077668;28;20177;-87
2022/02/18 04:36:57;;;;;;;10.23;2.27;;;8.00;99.50;;;;;;5095409;28;20220;-90
2022/02/18 04:39:23;;;;;;;4.60;1.57;;;8.10;99.50;;;;;;5077344;28;20280;-86
2022/02/18 04:41:49;;;;;;;4.43;1.57;;;8.10;99.50;;;;;;5077055;28;20183;-86
2022/02/18 04:44:16;;;;;;;4.60;1.90;;;8.10;99.50;;;;;;5078703;28;20388;-90
2022/02/18 04:46:42;;;;;;;3.67;1.42;;;8.10;99.50;;;;;;5079286;28;20184;-90
2022/02/18 04:49:08;;;;;;;3.17;1.80;;;8.00;99.50;;;;;;5096789;28;20192;-89
2022/02/18 04:51:37;;;;;;;2.25;1.35;;;8.00;99.60;;;;;;5094360;28;20538;-91
2022/02/18 04:54:03;;;;;;;4.10;1.83;;;8.00;99.70;;;;;;5102417;28;20220;-91
2022/02/18 04:56:29;;;;;;;1.83;1.50;;;8.00;99.70;;;;;;5088652;28;20312;-88
2022/02/18 04:58:55;;;;;;;1.97;1.07;;;8.00;99.80;;;;;;5091486;28;20200;-90
2022/02/18 05:01:21;;;;;;;6.55;2.05;;;8.00;99.80;;;;;;5076236;28;20265;-87
2022/02/18 05:03:47;;;;;;;3.00;1.43;;;7.90;99.90;;;;;;5094054;28;20253;-91
2022/02/18 05:06:12;;;;;;;2.30;1.30;;;7.90;99.90;;;;;;5094082;28;20188;-90
2022/02/18 05:08:38;;;;;;;2.57;1.70;;;7.90;99.90;;;;;;5097317;28;20200;-88
2022/02/18 05:11:04;;;;;;;3.17;1.20;;;8.00;99.90;;;;;;5103964;28;20669;-90
2022/02/18 05:13:30;;;;;;;2.57;1.57;;;7.90;99.90;;;;;;5101317;28;20232;-91
2022/02/18 05:15:55;;;;;;;3.97;1.80;;;7.90;99.90;;;;;;5103918;28;20200;-89
2022/02/18 05:18:21;;;;;;;4.80;1.60;;;7.90;99.90;;;;;;5081493;28;20226;-87
2022/02/18 05:20:46;;;;;;;4.23;2.37;;;7.90;99.90;;;;;;5099151;28;20257;-89
2022/02/18 05:23:12;;;;;;;9.53;3.50;;;8.00;99.90;;;;;;5103862;28;20204;-87
2022/02/18 05:25:38;;;;;;;6.40;2.77;;;8.00;99.90;;;;;;5083682;28;20229;-90
2022/02/18 05:28:04;;;;;;;7.70;2.97;;;8.00;99.90;;;;;;5080543;28;20272;-87
2022/02/18 05:30:31;;;;;;;5.80;2.33;;;8.00;99.90;;;;;;5098023;28;20436;-87
2022/02/18 05:32:57;;;;;;;5.28;2.88;;;8.00;99.90;;;;;;5080159;28;20474;-91
2022/02/18 05:35:23;;;;;;;5.30;2.77;;;8.00;99.90;;;;;;5078795;28;20208;-89
2022/02/18 05:37:49;;;;;;;5.63;2.20;;;8.00;99.90;;;;;;5097649;28;20208;-89
2022/02/18 05:40:14;;;;;;;9.80;2.90;;;8.00;99.90;;;;;;5078121;28;20168;-87
2022/02/18 05:42:41;;;;;;;4.90;2.03;;;8.00;99.90;;;;;;5098318;28;20452;-90
2022/02/18 05:45:07;;;;;;;9.00;1.98;;;8.00;99.90;;;;;;5080335;28;20429;-89
2022/02/18 05:47:34;;;;;;;7.60;2.67;;;8.00;99.90;;;;;;5098451;28;20253;-86
2022/02/18 05:50:11;;;;;;;8.88;3.08;;;8.00;99.90;;;;;;5098388;28;20989;-86
2022/02/18 05:52:38;;;;;;;5.57;2.55;;;8.00;99.90;;;;;;5097199;28;20243;-90
2022/02/18 05:55:04;;;;;;;6.75;2.65;;;7.90;99.90;;;;;;5077629;28;20208;-87
2022/02/18 05:57:30;;;;;;;8.48;2.85;;;7.90;99.90;;;;;;5094181;28;20200;-86
2022/02/18 05:59:56;;;;;;;8.93;3.20;;;7.80;99.90;;;;;;5076843;28;20555;-90
2022/02/18 06:02:22;;;;;;;7.00;3.27;;;7.80;99.90;;;;;;5084369;28;20453;-87
2022/02/18 06:04:48;;;;;;;7.45;2.63;;;7.80;99.90;;;;;;5073989;28;20176;-85
2022/02/18 06:07:16;;;;;;;30.17;15.20;;;7.70;99.90;;;;;;5093172;28;20213;-90
2022/02/18 06:09:41;;;;;;;5.47;3.67;;;7.70;99.90;;;;;;5084979;28;20275;-91
2022/02/18 06:12:08;;;;;;;6.03;2.73;;;7.70;99.90;;;;;;5093986;28;20275;-90
2022/02/18 06:14:33;;;;;;;14.32;5.47;;;7.70;99.90;;;;;;5092042;28;20232;-90
2022/02/18 06:16:59;;;;;;;12.93;6.63;;;7.70;99.90;;;;;;5104306;28;20223;-86
2022/02/18 06:19:25;;;;;;;16.57;9.67;;;7.70;99.90;;;;;;5093855;28;20177;-86
2022/02/18 06:21:50;;;;;;;16.80;10.37;;;7.70;99.90;;;;;;5096195;28;20260;-91
2022/02/18 06:24:16;;;;;;;3.20;2.90;;;7.70;99.90;;;;;;5106825;28;21009;-91
2022/02/18 06:26:42;;;;;;;3.43;2.10;;;7.80;99.90;;;;;;5091230;28;20192;-86
2022/02/18 06:29:08;;;;;;;4.47;1.90;;;7.80;99.90;;;;;;5092245;28;20180;-86
2022/02/18 06:31:33;;;;;;;3.53;1.77;;;7.80;99.90;;;;;;5094666;28;20586;-90
2022/02/18 06:33:59;;;;;;;5.20;2.43;;;7.80;99.90;;;;;;5095144;28;20578;-87
2022/02/18 06:36:25;;;;;;;4.33;2.00;;;7.90;99.90;;;;;;5095957;28;20226;-88
2022/02/18 06:38:51;;;;;;;7.17;2.77;;;7.90;99.90;;;;;;5091582;28;20460;-89
2022/02/18 06:41:17;;;;;;;3.80;2.23;;;7.90;99.90;;;;;;5087012;28;20479;-86
2022/02/18 06:43:42;;;;;;;4.37;2.13;;;8.00;99.90;;;;;;5096349;28;20419;-86
2022/02/18 06:46:08;;;;;;;5.70;2.43;;;8.10;99.90;;;;;;5097314;28;20644;-87
2022/02/18 06:48:34;;;;;;;11.27;3.00;;;8.20;99.90;;;;;;5097454;28;20226;-91
2022/02/18 06:51:00;;;;;;;5.03;2.50;;;8.20;99.90;;;;;;5095455;28;20177;-86
2022/02/18 06:53:28;;;;;;;16.27;9.37;;;8.30;99.90;;;;;;5096986;28;20196;-90
2022/02/18 06:55:53;;;;;;;7.35;4.15;;;8.40;99.90;;;;;;5096326;28;20480;-91
2022/02/18 06:58:19;;;;;;;11.77;4.43;;;8.40;99.90;;;;;;5096280;28;20563;-86
2022/02/18 07:00:45;;;;;;;22.50;14.13;;;8.50;99.90;;;;;;5092394;28;20184;-91
2022/02/18 07:03:11;;;;;;;6.93;3.40;;;8.60;99.90;;;;;;5091475;28;20361;-86
2022/02/18 07:05:36;;;;;;;3.77;2.20;;;8.80;99.90;;;;;;5103885;28;20469;-87
2022/02/18 07:08:21;;;;;;;6.33;3.03;;;8.90;99.90;;;;;;5088916;28;20204;-84
2022/02/18 07:10:47;;;;;;;5.65;2.42;;;9.10;99.90;;;;;;5094814;28;20390;-89
2022/02/18 07:13:13;;;;;;;11.63;4.03;;;9.20;99.90;;;;;;5089640;28;20386;-89
2022/02/18 07:15:39;;;;;;;11.40;2.83;;;9.30;99.90;;;;;;5076096;28;20204;-85
2022/02/18 07:18:05;;;;;;;3.60;2.00;;;9.40;99.90;;;;;;5074300;28;20197;-85
2022/02/18 07:20:32;;;;;;;9.73;1.75;;;9.50;99.90;;;;;;5072078;28;20440;-86
2022/02/18 07:22:58;;;;;;;10.77;3.00;;;9.60;99.90;;;;;;5073270;28;20219;-86
2022/02/18 07:25:27;;;;;;;3.42;2.10;;;9.70;99.90;;;;;;5073167;28;20612;-86
2022/02/18 07:27:54;;;;;;;6.80;2.42;;;9.70;99.90;;;;;;5068432;28;20205;-85
2022/02/18 07:30:19;;;;;;;10.63;2.67;;;9.70;99.90;;;;;;5071986;28;20177;-85
2022/02/18 07:32:45;;;;;;;4.97;2.03;;;9.80;99.90;;;;;;5072251;28;20614;-87
2022/02/18 07:35:11;;;;;;;5.07;2.43;;;9.70;99.90;;;;;;5091908;28;20700;-86
2022/02/18 07:37:37;;;;;;;4.20;1.87;;;9.80;99.90;;;;;;5078468;28;20211;-86
2022/02/18 07:40:03;;;;;;;3.07;1.80;;;9.80;99.90;;;;;;5075019;28;20395;-87
2022/02/18 07:42:28;;;;;;;3.72;2.20;;;9.80;99.90;;;;;;5075505;28;20197;-87
2022/02/18 07:44:54;;;;;;;6.30;2.40;;;9.90;99.90;;;;;;5074358;28;20185;-90
2022/02/18 07:47:20;;;;;;;7.17;2.27;;;9.90;99.90;;;;;;5094349;28;20293;-87
2022/02/18 07:49:47;;;;;;;4.80;1.93;;;10.10;99.90;;;;;;5076199;28;20410;-87
2022/02/18 07:52:14;;;;;;;3.35;1.60;;;10.30;99.90;;;;;;5092000;28;20265;-87
2022/02/18 07:54:41;;;;;;;2.67;2.00;;;10.50;99.90;;;;;;5095810;28;20173;-86
2022/02/18 07:57:10;;;;;;;5.22;2.20;;;10.70;99.90;;;;;;5094109;28;20552;-87
2022/02/18 07:59:35;;;;;;;2.65;1.90;;;10.90;99.90;;;;;;5076177;28;20180;-86
2022/02/18 08:02:01;;;;;;;4.43;1.70;;;11.10;99.90;;;;;;5076645;28;20192;-86
2022/02/18 08:04:27;;;;;;;1.93;1.73;;;11.40;99.90;;;;;;5076968;28;20187;-87
2022/02/18 08:06:53;;;;;;;3.93;2.03;;;11.80;99.90;;;;;;5075107;28;20433;-86
2022/02/18 08:09:19;;;;;;;6.50;2.83;;;12.20;99.90;;;;;;5083487;28;20642;-89
2022/02/18 08:11:45;;;;;;;3.78;1.65;;;12.40;99.50;;;;;;5079640;28;20196;-89
2022/02/18 08:14:10;;;;;;;5.90;2.67;;;12.40;98.30;;;;;;5094195;28;20224;-89
2022/02/18 08:16:36;;;;;;;4.53;1.57;;;12.30;98.60;;;;;;5089420;28;20275;-88
2022/02/18 08:19:02;;;;;;;5.00;1.90;;;12.10;98.50;;;;;;5081563;28;20192;-89
2022/02/18 08:21:28;;;;;;;9.10;2.00;;;12.00;98.50;;;;;;5094631;28;20245;-89
2022/02/18 08:23:54;;;;;;;4.27;1.80;;;11.90;97.90;;;;;;5100245;28;20215;-85
2022/02/18 08:26:21;;;;;;;5.20;1.93;;;11.70;98.00;;;;;;5087592;28;20271;-89
2022/02/18 08:28:46;;;;;;;4.13;2.10;;;11.60;97.50;;;;;;5122047;27;20547;-85
2022/02/18 08:31:12;;;;;;;5.50;2.20;;;11.50;97.60;;;;;;5084424;28;20189;-91
2022/02/18 08:33:38;;;;;;;7.10;2.10;;;11.40;97.70;;;;;;5092800;28;20459;-87
2022/02/18 08:36:06;;;;;;;3.53;2.07;;;11.40;97.50;;;;;;5090633;28;20231;-90
2022/02/18 08:38:32;;;;;;;3.05;1.75;;;11.30;97.30;;;;;;5108181;27;20237;-86
2022/02/18 08:40:57;;;;;;;5.93;4.37;;;11.30;97.30;;;;;;5094768;28;20256;-90
2022/02/18 08:43:23;;;;;;;3.70;2.30;;;11.30;97.70;;;;;;5090260;28;21548;-86
2022/02/18 08:45:49;;;;;;;4.83;1.80;;;11.30;97.30;;;;;;5118311;28;20184;-87
2022/02/18 08:48:15;;;;;;;3.70;2.27;;;11.30;96.90;;;;;;5094942;28;20212;-91
2022/02/18 08:50:40;;;;;;;5.17;2.00;;;11.30;96.70;;;;;;5087774;28;20183;-87
2022/02/18 08:53:06;;;;;;;1.83;1.40;;;11.40;96.50;;;;;;5085707;28;20256;-90
2022/02/18 08:55:32;;;;;;;4.30;1.80;;;11.40;96.30;;;;;;5089927;28;20597;-90
2022/02/18 08:57:58;;;;;;;2.10;1.10;;;11.40;94.80;;;;;;5092556;28;20758;-86
2022/02/18 09:00:24;;;;;;;2.50;1.20;;;11.40;94.40;;;;;;5098910;28;20180;-85
2022/02/18 09:02:50;;;;;;;6.30;1.63;;;11.40;94.00;;;;;;5094236;28;20851;-86
2022/02/18 09:05:16;;;;;;;2.55;1.58;;;11.40;94.10;;;;;;5095471;28;20596;-86
2022/02/18 09:07:44;;;;;;;5.20;1.67;;;11.40;94.10;;;;;;5094837;28;20338;-86
2022/02/18 09:10:13;;;;;;;2.30;1.52;;;11.40;93.80;;;;;;5089921;28;20419;-86
2022/02/18 09:12:40;;;;;;;3.55;2.25;;;11.40;93.70;;;;;;5096912;28;20573;-91
2022/02/18 09:15:07;;;;;;;1.85;1.20;;;11.50;93.10;;;;;;5086975;28;20187;-86
2022/02/18 09:17:33;;;;;;;6.13;1.50;;;11.40;92.70;;;;;;5094714;28;20195;-91
2022/02/18 09:20:00;;;;;;;2.90;1.70;;;11.40;93.00;;;;;;5077422;28;20196;-87
2022/02/18 09:22:25;;;;;;;2.80;1.00;;;11.40;93.20;;;;;;5073109;28;20211;-87
2022/02/18 09:24:52;;;;;;;3.90;1.70;;;11.40;93.10;;;;;;5068594;28;20192;-86
2022/02/18 09:27:18;;;;;;;3.67;1.40;;;11.50;92.80;;;;;;5093320;28;20236;-90
2022/02/18 09:29:44;;;;;;;4.10;1.30;;;11.50;92.50;;;;;;5094144;28;20176;-87
2022/02/18 09:32:10;;;;;;;6.43;2.20;;;11.50;92.30;;;;;;5093264;28;20812;-90
2022/02/18 09:34:36;;;;;;;2.53;1.23;;;11.50;92.10;;;;;;5076507;28;20456;-90
2022/02/18 09:37:04;;;;;;;3.25;1.40;;;11.50;91.90;;;;;;5073680;28;20342;-86
2022/02/18 09:39:30;;;;;;;5.25;3.63;;;11.60;91.90;;;;;;5068270;28;20177;-90
2022/02/18 09:41:56;;;;;;;3.03;1.20;;;11.50;91.70;;;;;;5054919;28;20665;-86
2022/02/18 09:44:27;;;;;;;6.23;2.20;;;11.50;91.50;;;;;;5091452;28;20191;-87
2022/02/18 09:46:53;;;;;;;4.13;1.50;;;11.60;91.60;;;;;;5082485;28;20200;-87
2022/02/18 09:49:19;;;;;;;2.30;1.33;;;11.60;91.20;;;;;;5096053;28;20176;-90
2022/02/18 09:51:45;;;;;;;3.03;1.13;;;11.60;91.10;;;;;;5099954;28;20439;-91
2022/02/18 09:54:11;;;;;;;6.20;1.40;;;11.60;91.20;;;;;;5072219;28;20432;-90
2022/02/18 09:56:42;;;;;;;3.83;1.20;;;11.60;91.30;;;;;;5090570;28;20212;-90
2022/02/18 09:59:10;;;;;;;2.92;1.05;;;11.60;91.30;;;;;;5089159;28;20200;-90
2022/02/18 10:01:36;;;;;;;2.80;1.70;;;11.70;91.10;;;;;;5092497;28;20188;-90
2022/02/18 10:04:03;;;;;;;3.28;1.50;;;11.70;90.90;;;;;;5075523;28;20200;-91
2022/02/18 10:06:30;;;;;;;7.53;2.10;;;11.70;91.20;;;;;;5099366;28;20176;-90
2022/02/18 10:09:01;;;;;;;6.60;2.30;;;11.70;91.40;;;;;;5094691;28;20298;-91
2022/02/18 10:11:33;;;;;;;4.22;2.33;;;11.70;91.60;;;;;;5093786;28;20188;-90
2022/02/18 10:13:59;;;;;;;8.05;3.08;;;11.70;91.70;;;;;;5084248;28;20285;-86
2022/02/18 10:16:25;;;;;;;12.93;7.43;;;11.70;91.70;;;;;;5084522;28;20224;-86
2022/02/18 10:18:53;;;;;;;20.60;9.70;;;11.70;91.80;;;;;;5091059;28;20295;-86
2022/02/18 10:21:20;;;;;;;5.20;3.45;;;11.70;91.60;;;;;;5090001;28;20191;-86
2022/02/18 10:23:46;;;;;;;7.68;4.07;;;11.80;91.70;;;;;;5095653;28;20228;-86
2022/02/18 10:26:12;;;;;;;11.07;6.00;;;11.70;91.80;;;;;;5091904;28;20251;-86
2022/02/18 10:28:39;;;;;;;5.80;2.23;;;11.80;91.90;;;;;;5093403;28;20491;-86
2022/02/18 10:31:07;;;;;;;3.78;2.03;;;11.80;92.00;;;;;;5083497;28;20407;-86
2022/02/18 10:33:36;;;;;;;4.45;1.75;;;11.80;92.00;;;;;;5092251;28;20266;-85
2022/02/18 10:36:04;;;;;;;3.25;1.90;;;11.90;91.90;;;;;;5096154;28;20216;-91
2022/02/18 10:38:35;;;;;;;3.20;1.67;;;11.90;92.20;;;;;;5097359;28;20199;-90
2022/02/18 10:41:14;;;;;;;5.00;1.90;;;11.90;92.10;;;;;;5095542;28;20216;-91
2022/02/18 10:43:45;;;;;;;4.97;1.40;;;12.00;92.10;;;;;;5121654;27;20203;-89
2022/02/18 10:46:11;;;;;;;3.50;1.92;;;12.10;91.70;;;;;;5093618;28;20237;-86
2022/02/18 10:48:56;;;;;;;3.87;2.20;;;12.10;91.70;;;;;;5090946;28;20196;-86
2022/02/18 10:51:30;;;;;;;2.63;1.35;;;12.20;91.90;;;;;;5094719;28;20738;-86
2022/02/18 10:53:57;;;;;;;2.67;1.35;;;12.30;91.90;;;;;;5093695;28;20327;-86
2022/02/18 10:56:28;;;;;;;2.80;1.08;;;12.40;91.60;;;;;;5087729;28;20219;-88
2022/02/18 10:58:54;;;;;;;2.15;1.40;;;12.40;91.70;;;;;;5089203;28;20214;-90
2022/02/18 11:01:25;;;;;;;2.53;1.20;;;12.40;91.80;;;;;;5082610;28;20219;-91
2022/02/18 11:03:52;;;;;;;2.35;1.30;;;12.50;91.80;;;;;;5091861;28;20200;-91
2022/02/18 11:06:20;;;;;;;4.65;1.73;;;12.60;91.80;;;;;;5102379;28;20275;-90
2022/02/18 11:08:54;;;;;;;4.40;1.65;;;12.60;91.70;;;;;;5091707;28;20188;-90
2022/02/18 11:11:21;;;;;;;5.07;1.53;;;12.70;91.90;;;;;;5091126;28;20268;-90
2022/02/18 11:13:48;;;;;;;3.53;1.30;;;12.80;93.50;;;;;;5093251;28;20511;-90
2022/02/18 11:16:16;;;;;;;3.97;1.40;;;12.90;95.00;;;;;;5074508;28;20575;-87
2022/02/18 11:18:43;;;;;;;2.95;1.45;;;13.10;95.30;;;;;;5075035;28;20433;-91
2022/02/18 11:21:10;;;;;;;3.40;1.43;;;13.40;94.50;;;;;;5074812;28;20515;-91
2022/02/18 11:23:37;;;;;;;5.13;2.03;;;13.60;92.40;;;;;;5093453;28;20448;-88
2022/02/18 11:26:03;;;;;;;3.50;1.50;;;14.00;91.50;;;;;;5074316;28;20935;-91
2022/02/18 11:28:28;;;;;;;3.77;1.87;;;14.30;90.50;;;;;;5093813;28;20440;-91
2022/02/18 11:31:01;;;;;;;6.00;1.70;;;14.40;90.10;;;;;;5092910;28;20417;-92
2022/02/18 11:33:48;;;;;;;4.37;1.67;;;14.50;90.00;;;;;;5081889;28;20453;-87
2022/02/18 11:36:36;;;;;;;3.23;1.40;;;14.60;89.00;;;;;;5076438;28;20984;-87
2022/02/18 11:39:40;;;;;;;4.90;1.40;;;14.70;88.60;;;;;;5089391;28;21082;-92
2022/02/18 11:42:23;;;;;;;4.70;1.40;;;14.70;88.40;;;;;;5090665;28;20499;-87
2022/02/18 11:44:49;;;;;;;2.83;1.83;;;14.80;88.20;;;;;;5090125;28;20815;-88
2022/02/18 11:47:24;;;;;;;4.63;1.87;;;14.80;88.40;;;;;;5074452;28;20504;-92
2022/02/18 11:49:51;;;;;;;3.40;1.70;;;14.80;87.10;;;;;;5088783;28;20219;-92
2022/02/18 11:52:21;;;;;;;5.90;3.87;;;14.80;86.80;;;;;;5072788;28;20991;-87
2022/02/18 11:54:48;;;;;;;5.33;1.50;;;14.70;86.80;;;;;;5090300;28;20433;-89
2022/02/18 11:57:16;;;;;;;5.47;1.93;;;14.70;86.40;;;;;;5078093;28;20738;-91
2022/02/18 11:59:54;;;;;;;5.40;2.03;;;14.80;87.00;;;;;;5089769;28;21824;-87
2022/02/18 12:02:33;;;;;;;3.93;1.90;;;14.80;85.80;;;;;;5068125;28;21001;-86
2022/02/18 12:05:09;;;;;;;3.73;1.30;;;14.80;85.80;;;;;;5068196;28;20456;-87
2022/02/18 12:07:36;;;;;;;12.80;8.80;;;14.80;85.80;;;;;;5083748;28;21119;-87
2022/02/18 12:10:07;;;;;;;7.70;4.50;;;14.80;85.40;;;;;;5070841;28;20416;-87
2022/02/18 12:12:34;;;;;;;6.47;2.33;;;14.80;86.10;;;;;;5072167;28;20539;-86
2022/02/18 12:15:13;;;;;;;7.40;3.00;;;14.80;84.60;;;;;;5102428;28;20443;-91
2022/02/18 12:17:42;;;;;;;9.73;3.13;;;14.80;84.50;;;;;;5087478;28;20605;-85
2022/02/18 12:20:16;;;;;;;5.10;3.40;;;14.80;84.30;;;;;;5098486;28;20930;-91
2022/02/18 12:22:43;;;;;;;6.43;2.60;;;14.70;85.80;;;;;;5105057;28;20539;-90
2022/02/18 12:25:18;;;;;;;5.93;2.17;;;14.70;84.50;;;;;;5094610;28;20440;-90
2022/02/18 12:27:44;;;;;;;5.93;1.70;;;14.70;89.40;;;;;;5069757;28;20427;-90
2022/02/18 12:30:37;;;;;;;2.70;1.67;;;14.70;89.10;;;;;;5079046;28;20440;-86
2022/02/18 12:33:03;;;;;;;3.93;2.13;;;14.80;85.50;;;;;;5068575;28;20468;-87
2022/02/18 12:35:33;;;;;;;4.77;2.27;;;14.90;86.30;;;;;;5077332;28;20483;-90
2022/02/18 12:38:01;;;;;;;9.63;4.90;;;15.00;85.70;;;;;;5070217;28;20464;-91
2022/02/18 12:40:27;;;;;;;6.83;3.33;;;15.10;84.30;;;;;;5067473;28;20421;-90
2022/02/18 12:43:20;;;;;;;6.87;1.83;;;15.10;84.30;;;;;;5077969;28;20567;-86
2022/02/18 12:45:52;;;;;;;4.93;1.90;;;15.20;84.40;;;;;;5090823;28;20407;-85
2022/02/18 12:48:36;;;;;;;10.50;3.50;;;15.20;84.40;;;;;;5075009;28;20455;-86
2022/02/18 12:51:15;;;;;;;5.23;1.90;;;15.20;84.60;;;;;;5072836;28;20804;-86
2022/02/18 12:53:46;;;;;;;4.10;2.13;;;15.20;83.90;;;;;;5074145;28;20452;-90